Lyle, Minnesota
Current Conditions -  °F | °C
As of 7:56 PM on Monday 24 Nov 2014 (Local Time) from KAUM Reporting Station
Light Snow Light Snow  
Wind Chill: -2°   Ceiling: 1400
Heat Index: 14°   Visibility: 7mi
Dew Point:   Wind: 16mph
Humidity: 79%   Direction: 300°WNW
Pressure: 29.77"   Gusts: 26mph
Location:  43.51°N, 92.94°W
Report Text: KAUM 250156Z AUTO 30014G23KT 7SM -SN BKN014 BKN019 OVC029 M10/M13 A2977 RMK AO2
Loading
Personal Weather Stations






























Interactive Weather Map New forecast layout! Learn more

10-Day Weather Forecast

Advertisements
Track Severe Weather on mobile